Airfield :
LOGIN :

Register | Disclaimer

   EN    FR    IT 

 










Legend :    VFR   Marginal VFR   IFR   Intensive IFR   Very Intensive IFR
Visi :
Ceiling :
>= 8 km
>= 3000ft
5 to 8 km
1000 to 3000 ft
1500m to 5 km
500 to 1000 ft
800 to 1500m
200 to 500 ft
< 800m
< 200 ft
Symbols :   Thunderstorms  Fog  Heavy snow  Heavy precipitations  Wind > 20 kt
SIGMETs :     Misc.  Thunderstorms  Icing  Turbulence  Mountain Waves  Volcanic Ashes







- Airport Elevation : 13 ft
- IATA code : GOA


LIMJ - Genoa Cristoforo Colombo

CURRENT METAR :
  • 121550Z 18008KT 9999 SCT030 BKN060 13/08 Q1011

EXPIRED METARs :
  • 121520Z 19010KT 9999 SCT030 BKN060 14/08 Q1011
  • 121450Z 19012KT 9999 SCT030 BKN060 14/08 Q1010
  • 121420Z 18007KT 140V200 9999 SCT030 BKN060 13/08 Q1010
  • 121350Z 14008KT 090V190 9999 SCT030 BKN050 13/08 Q1010
  • 121320Z 15009KT 9999 SCT030 BKN050 13/08 Q1010
  • 121250Z 14010KT 9999 SCT030 BKN050 13/08 Q1010

TAF TAF LIMJ
Valid from the 12 at 12:00 until the 13 at 12:00 UTC


121100Z 1212/1312 21010KT 9999 BKN030
PROB40
TEMPO 1212/1216 21010G20KT
BECMG 1219/1221 02006KT
No reported NOTAMs for that airfield.
2 SIGMETs reported for the Milano FIR (LIMM) :
 
Severe turbulence
LIMM SIGMET 12 VALID 121415/121815 LIIP
LIMM MILANO FIR SEV TURB FCST N OF LINE N4407 E00658 - N4625 E00955 FL240/380 MOV E WKN=
Severe icing
LIMM SIGMET 11 VALID 121420/121720 LIIP
LIMM MILANO FIR SEV ICE OBS WI N4614 E01329 - N4546 E01103 - N4433 E01110 - N4437 E01313 - N4509 E01306 - N4536 E01331 - N4536 E01353 - N4614 E01329 FL180/280 STNR NC=



MET'MAP, your aeronautical weather chart ! - Copyright ORBIFLY December 2007 - Disclaimer

ORBIFLY MET'MAP TEAM :

Programming & Development : Alexandra Zaïnal
Concept & Development : Baudouin d'Aumeries
Co-Development & Prog : Marc-Olivier Méhu
Technical & hardware support : Manuel Goepfert

Contact : metmap@orbifly.com




SOURCES & CREDITS :

   NOAA